createdAt,value
2022-09-06T00:09:58.345Z,22.06
2022-09-06T00:29:58.323Z,21.93
2022-09-06T00:49:58.301Z,21.81
2022-09-06T01:09:58.252Z,21.75
2022-09-06T01:29:58.241Z,21.75
2022-09-06T01:49:58.206Z,21.75
2022-09-06T02:09:58.178Z,21.68
2022-09-06T02:29:58.145Z,21.68
2022-09-06T02:49:58.121Z,21.68
2022-09-06T03:09:58.077Z,21.62
2022-09-06T03:29:58.050Z,21.56
2022-09-06T03:49:58.042Z,21.62
2022-09-06T04:09:58.007Z,21.68
2022-09-06T04:29:57.976Z,21.50
2022-09-06T04:49:57.940Z,21.50
2022-09-06T05:09:57.920Z,21.68
2022-09-06T05:29:57.891Z,21.68
2022-09-06T05:49:57.862Z,21.43
2022-09-06T06:09:57.829Z,21.62
2022-09-06T06:29:57.806Z,21.56
2022-09-06T06:49:57.779Z,21.56
2022-09-06T07:09:57.759Z,21.75
2022-09-06T07:29:57.712Z,21.87
2022-09-06T07:49:57.687Z,21.50
2022-09-06T08:09:57.668Z,21.68
2022-09-06T08:29:57.632Z,21.81
2022-09-06T08:49:57.592Z,21.75
2022-09-06T09:09:57.563Z,21.75
2022-09-06T09:29:57.546Z,21.62
2022-09-06T09:49:57.527Z,22.06
2022-09-06T10:09:57.479Z,21.87
2022-09-06T10:29:57.450Z,21.93
2022-09-06T10:49:57.415Z,21.81
2022-09-06T11:09:57.379Z,21.68
2022-09-06T11:29:57.356Z,21.62
2022-09-06T11:49:57.320Z,21.75
2022-09-06T12:09:57.279Z,22.00
2022-09-06T12:29:57.263Z,22.25
2022-09-06T12:49:57.216Z,22.37
2022-09-06T13:09:57.204Z,22.31
2022-09-06T13:29:57.167Z,22.37
2022-09-06T13:49:57.132Z,22.31
2022-09-06T14:09:57.102Z,22.62
2022-09-06T14:29:57.075Z,22.43
2022-09-06T14:49:57.079Z,22.68
2022-09-06T15:09:57.046Z,22.37
2022-09-06T15:29:56.961Z,22.62
2022-09-06T15:49:56.964Z,22.56
2022-09-06T16:09:56.919Z,22.37
2022-09-06T16:29:56.877Z,22.37
2022-09-06T16:49:56.852Z,22.43
2022-09-06T17:09:56.808Z,22.37
2022-09-06T17:29:56.775Z,22.37
2022-09-06T17:49:56.759Z,22.31
2022-09-06T18:09:56.717Z,22.37
2022-09-06T18:29:56.683Z,22.43
2022-09-06T18:49:56.673Z,22.37
2022-09-06T19:09:56.629Z,22.31
2022-09-06T19:29:56.595Z,22.25
2022-09-06T19:49:56.578Z,22.37
2022-09-06T20:09:56.534Z,22.25
2022-09-06T20:29:56.505Z,22.37
2022-09-06T20:49:56.477Z,22.18
2022-09-06T21:09:56.438Z,22.25
2022-09-06T21:29:56.418Z,22.18
2022-09-06T21:49:56.391Z,22.00
2022-09-06T22:09:56.347Z,22.25
2022-09-06T22:29:56.333Z,22.25
2022-09-06T22:49:56.290Z,22.12
2022-09-06T23:09:56.264Z,22.06
2022-09-06T23:29:56.237Z,22.06
2022-09-06T23:49:56.199Z,22.06
